Flood From: 21-02-2018 18:00 Until: 22-02-2018 16:00 warning for: Flood Level: Yellow info button

Although rather usual in this region, locally or potentially dangerous phenomena are expected. (such as local winds, summer thunderstorms, rising streams or high waves) Be aware and pay attention to the latest weather updates, especially if you carry out activities exposed to weather or close to a stream or shoreline. 


Meteo18 Weather Cam more information Meteo18 Weather Cam


Thunder radar more information blitzortung!


Rain radar more information rain snow radar


Visit our other weather sites:

Template documentation
and downloads

And another site



Weather Underground History page Text

Daily Summary for June 26, 2016 Units:  Metric    English   Both
« Previous Day
Next Day »
Daily Weekly Monthly Yearly Custom
  High: Low: Average:
Temperature: -17.8 °C -12.2 °C -8.7 °C
Dew Point: -17.8 °C -12.7 °C -11.6 °C
Humidity: Humidity % 49 % 73 %
Wind Speed: 0 km/h 0 km/h 1 km/h
Wind Gust: 0 km/h - -
Wind:- - SE
Pressure: 0 hPa 34510.1 hPa -
Precipitation: 0 mm    
Historical Graphs
 
 
Tabular Data for June 26, 2016
Time Temperature Dew Point Pressure Wind Wind Speed Wind Gust Humidity Rainfall Rate (Hourly)
-17.8 °C -17.8 °C 0 hPa Calm     Humidity % 0 mm
00:13 -10.5 °C -11.7 °C 34510.1 hPa Calm     87 % 0 mm
00:31 -10.7 °C -11.8 °C 34520.3 hPa Calm     88 % 0 mm
00:41 -10.8 °C -11.8 °C 34520.3 hPa Calm     88 % 0 mm
00:47 -10.7 °C -12 °C 34520.3 hPa Calm   2.6 km/h 86 % 0 mm
00:54 -10.7 °C -12.1 °C 34510.1 hPa Calm   2.6 km/h 85 % 0 mm
01:02 -10.5 °C -11.9 °C 34520.3 hPa Calm   2.6 km/h 84 % 0 mm
01:07 -10.5 °C -11.9 °C 34520.3 hPa Calm   2.6 km/h 84 % 0 mm
01:14 -10.5 °C -11.9 °C 34520.3 hPa Calm   2.6 km/h 84 % 0 mm
01:22 -10.6 °C -12 °C 34510.1 hPa Calm     85 % 0 mm
01:31 -10.7 °C -11.9 °C 34520.3 hPa Calm     86 % 0 mm
01:37 -10.8 °C -12 °C 34520.3 hPa Calm     87 % 0 mm
01:42 -10.9 °C -12.1 °C 34520.3 hPa Calm     87 % 0 mm
01:47 -11 °C -12.1 °C 34510.1 hPa Calm     88 % 0 mm
01:54 -11.1 °C -12.2 °C 34510.1 hPa Calm     88 % 0 mm
01:59 -11.2 °C -12.2 °C 34520.3 hPa Calm     89 % 0 mm
02:07 -11.2 °C -12.2 °C 34520.3 hPa Calm   2.6 km/h 89 % 0 mm
02:14 -11.2 °C -12.2 °C 34520.3 hPa Calm   2.6 km/h 89 % 0 mm
02:22 -11.2 °C -12.2 °C 34510.1 hPa Calm   2.6 km/h 89 % 0 mm
02:27 -11.1 °C -12.2 °C 34520.3 hPa Calm   2.6 km/h 88 % 0 mm
02:36 -11.1 °C -12.1 °C 34520.3 hPa Calm   2.6 km/h 88 % 0 mm
02:42 -11.2 °C -12.2 °C 34520.3 hPa Calm   2.6 km/h 88 % 0 mm
02:49 -11.2 °C -12.2 °C 34520.3 hPa Calm   2.6 km/h 88 % 0 mm
02:57 -11.1 °C -12.2 °C 34520.3 hPa Calm   2.6 km/h 87 % 0 mm
03:02 -11.1 °C -12.2 °C 34520.3 hPa Calm   2.6 km/h 87 % 0 mm
03:07 -11.1 °C -12.2 °C 34520.3 hPa Calm   2.6 km/h 88 % 0 mm
03:12 -11.3 °C -12.3 °C 34520.3 hPa Calm   2.6 km/h 89 % 0 mm
03:17 -11.4 °C -12.3 °C 34520.3 hPa Calm   2.6 km/h 90 % 0 mm
03:22 -11.4 °C -12.3 °C 34520.3 hPa Calm   2.6 km/h 90 % 0 mm
03:27 -11.5 °C -12.4 °C 34520.3 hPa Calm   2.6 km/h 90 % 0 mm
03:32 -11.6 °C -12.4 °C 34520.3 hPa Calm   2.6 km/h 90 % 0 mm
03:37 -11.6 °C -12.4 °C 34520.3 hPa NE 2.6 km/h   91 % 0 mm
03:42 -11.7 °C -12.4 °C 34520.3 hPa Calm     91 % 0 mm
03:47 -11.7 °C -12.3 °C 34520.3 hPa Calm   2.6 km/h 92 % 0 mm
03:52 -11.7 °C -12.3 °C 34520.3 hPa Calm   2.6 km/h 92 % 0 mm
03:57 -11.7 °C -12.4 °C 34520.3 hPa Calm   2.6 km/h 92 % 0 mm
04:02 -11.7 °C -12.4 °C 34520.3 hPa Calm   2.6 km/h 92 % 0 mm
04:12 -11.8 °C -12.4 °C 34520.3 hPa Calm   2.6 km/h 92 % 0 mm
04:19 -11.7 °C -12.4 °C 34520.3 hPa Calm   2.6 km/h 92 % 0 mm
04:27 -11.7 °C -12.3 °C 34520.3 hPa Calm   2.6 km/h 92 % 0 mm
04:32 -11.7 °C -12.5 °C 34520.3 hPa Calm   2.6 km/h 91 % 0 mm
04:37 -11.8 °C -12.6 °C 34520.3 hPa Calm     91 % 0 mm
04:42 -11.8 °C -12.6 °C 34520.3 hPa Calm     91 % 0 mm
04:52 -11.8 °C -12.5 °C 34520.3 hPa Calm     92 % 0 mm
05:02 -11.8 °C -12.4 °C 34520.3 hPa Calm     93 % 0 mm
05:12 -11.8 °C -12.4 °C 34520.3 hPa Calm     93 % 0 mm
05:17 -11.9 °C -12.5 °C 34533.8 hPa Calm     93 % 0 mm
05:22 -11.9 °C -12.5 °C 34533.8 hPa Calm     93 % 0 mm
05:32 -11.9 °C -12.4 °C 34533.8 hPa Calm     94 % 0 mm
05:42 -11.9 °C -12.4 °C 34533.8 hPa Calm     94 % 0 mm
05:52 -11.9 °C -12.4 °C 34533.8 hPa Calm     94 % 0 mm
05:57 -12 °C -12.5 °C 34533.8 hPa Calm     94 % 0 mm
06:02 -12.1 °C -12.6 °C 34533.8 hPa Calm     94 % 0 mm
06:07 -12.1 °C -12.6 °C 34533.8 hPa Calm     94 % 0 mm
06:12 -12.1 °C -12.6 °C 34533.8 hPa Calm     94 % 0 mm
06:17 -12.1 °C -12.6 °C 34533.8 hPa Calm     94 % 0 mm
06:22 -12.2 °C -12.7 °C 34533.8 hPa Calm     94 % 0 mm
06:32 -12.2 °C -12.7 °C 34533.8 hPa Calm     95 % 0 mm
06:37 -12.2 °C -12.6 °C 34533.8 hPa Calm     95 % 0 mm
06:42 -12.2 °C -12.6 °C 34533.8 hPa Calm     95 % 0 mm
06:47 -12.2 °C -12.7 °C 34533.8 hPa Calm     95 % 0 mm
06:52 -12.2 °C -12.7 °C 34533.8 hPa Calm     95 % 0 mm
07:02 -12.1 °C -12.4 °C 34533.8 hPa Calm     96 % 0 mm
07:12 -12.1 °C -12.4 °C 34533.8 hPa Calm     96 % 0 mm
07:17 -12 °C -12.3 °C 34533.8 hPa Calm     96 % 0 mm
07:22 -11.9 °C -12.2 °C 34533.8 hPa Calm     96 % 0 mm
07:32 -11.8 °C -12.1 °C 34533.8 hPa Calm     96 % 0 mm
07:42 -11.4 °C -11.8 °C 34533.8 hPa Calm     96 % 0 mm
07:47 -11.3 °C -11.8 °C 34533.8 hPa Calm   2.6 km/h 95 % 0 mm
07:52 -11.2 °C -11.7 °C 34533.8 hPa Calm   2.6 km/h 94 % 0 mm
07:57 -11.1 °C -11.7 °C 34533.8 hPa Calm   5.1 km/h 93 % 0 mm
08:02 -10.9 °C -11.7 °C 34533.8 hPa East 2.6 km/h 5.1 km/h 91 % 0 mm
08:12 -10.7 °C -11.6 °C 34533.8 hPa Calm   5.1 km/h 90 % 0 mm
08:17 -10.7 °C -11.6 °C 34533.8 hPa Calm   2.6 km/h 90 % 0 mm
08:22 -10.5 °C -11.4 °C 34544 hPa Calm   2.6 km/h 90 % 0 mm
08:32 -10.2 °C -11.3 °C 34544 hPa Calm   2.6 km/h 88 % 0 mm
08:42 -9.9 °C -11.3 °C 34544 hPa Calm   2.6 km/h 85 % 0 mm
08:52 -9.6 °C -11.2 °C 34544 hPa Calm   5.1 km/h 82 % 0 mm
09:02 -9.1 °C -11.1 °C 34544 hPa Calm   5.1 km/h 79 % 0 mm
09:12 -8.4 °C -10.8 °C 34544 hPa Calm   5.1 km/h 76 % 0 mm
09:17 -8.2 °C -10.8 °C 34554.1 hPa Calm   2.6 km/h 74 % 0 mm
09:22 -7.9 °C -10.9 °C 34554.1 hPa WSW 2.6 km/h 2.6 km/h 71 % 0 mm
09:32 -7.7 °C -10.5 °C 34554.1 hPa Calm   12.9 km/h 72 % 0 mm
09:42 -7.6 °C -11.2 °C 34554.1 hPa Calm   12.9 km/h 66 % 0 mm
09:47 -7.6 °C -11.4 °C 34554.1 hPa ENE 5.1 km/h 7.7 km/h 64 % 0 mm
09:52 -7.6 °C -11.2 °C 34554.1 hPa SE 2.6 km/h 7.7 km/h 66 % 0 mm
10:02 -7.5 °C -11.3 °C 34554.1 hPa Calm   12.9 km/h 64 % 0 mm
10:12 -7 °C -11.4 °C 34554.1 hPa NE 10.3 km/h 12.9 km/h 60 % 0 mm
10:22 -7.3 °C -10.9 °C 34554.1 hPa Calm   10.3 km/h 66 % 0 mm
10:32 -6.8 °C -10.8 °C 34554.1 hPa Calm   15.6 km/h 63 % 0 mm
10:37 -6.6 °C -11.6 °C 34554.1 hPa Calm   5.1 km/h 56 % 0 mm
10:42 -6.4 °C -11.4 °C 34554.1 hPa NE 2.6 km/h 5.1 km/h 56 % 0 mm
10:52 -6.4 °C -11.6 °C 34554.1 hPa Calm   10.3 km/h 55 % 0 mm
10:57 -6.3 °C -11.3 °C 34554.1 hPa SW 5.1 km/h 10.3 km/h 56 % 0 mm
11:02 -6.3 °C -11.2 °C 34554.1 hPa East 7.7 km/h 10.3 km/h 57 % 0 mm
11:12 -6.3 °C -11.5 °C 34554.1 hPa NE 7.7 km/h 18.2 km/h 55 % 0 mm
11:17 -6.7 °C -11.6 °C 34554.1 hPa Calm   18.2 km/h 57 % 0 mm
11:22 -6.9 °C -11.8 °C 34554.1 hPa Calm   18.2 km/h 57 % 0 mm
11:27 -6.7 °C -11 °C 34554.1 hPa ENE 12.9 km/h 12.9 km/h 61 % 0 mm
11:37 -6.9 °C -11.6 °C 34554.1 hPa Calm   18.2 km/h 58 % 0 mm
11:42 -6.9 °C -11.8 °C 34554.1 hPa NE 5.1 km/h 18.2 km/h 57 % 0 mm
11:47 -7.1 °C -11.6 °C 34554.1 hPa ENE 12.9 km/h 12.9 km/h 60 % 0 mm
11:52 -6.8 °C -11.6 °C 34554.1 hPa ENE 7.7 km/h 7.7 km/h 58 % 0 mm
11:57 -6.7 °C -11 °C 34554.1 hPa ENE 2.6 km/h 18.2 km/h 61 % 0 mm
12:07 -6.9 °C -11.6 °C 34554.1 hPa Calm   20.8 km/h 58 % 0 mm
12:12 -6.6 °C -11.7 °C 34554.1 hPa ENE 2.6 km/h 20.8 km/h 55 % 0 mm
12:17 -6.6 °C -11.7 °C 34554.1 hPa South 7.7 km/h 20.8 km/h 56 % 0 mm
12:22 -6.7 °C -11.9 °C 34554.1 hPa Calm   12.9 km/h 55 % 0 mm
12:27 -6.8 °C -12.2 °C 34554.1 hPa East 2.6 km/h 12.9 km/h 54 % 0 mm
12:32 -6.8 °C -11.5 °C 34554.1 hPa WSW 2.6 km/h 15.6 km/h 58 % 0 mm
12:42 -6.7 °C -11.4 °C 34554.1 hPa Calm   12.9 km/h 58 % 0 mm
12:49 -6.8 °C -11.6 °C 34554.1 hPa Calm   7.7 km/h 58 % 0 mm
12:57 -6.8 °C -11.8 °C 34554.1 hPa NE 7.7 km/h 12.9 km/h 56 % 0 mm
13:02 -7 °C -11.7 °C 34554.1 hPa Calm   12.9 km/h 58 % 0 mm
13:07 -6.8 °C -11.4 °C 34554.1 hPa SW 2.6 km/h 10.3 km/h 59 % 0 mm
13:12 -6.4 °C -11.2 °C 34554.1 hPa Calm   10.3 km/h 58 % 0 mm
13:17 -6.2 °C -11.2 °C 34554.1 hPa Calm   15.6 km/h 56 % 0 mm
13:22 -6.1 °C -11.6 °C 34554.1 hPa Calm   15.6 km/h 53 % 0 mm
13:27 -6.4 °C -11.8 °C 34554.1 hPa NE 2.6 km/h 15.6 km/h 54 % 0 mm
13:32 -6.7 °C -12 °C 34554.1 hPa Calm   15.6 km/h 54 % 0 mm
13:37 -6.7 °C -11.7 °C 34554.1 hPa Calm   15.6 km/h 56 % 0 mm
13:42 -6.6 °C -11.7 °C 34554.1 hPa Calm   15.6 km/h 56 % 0 mm
13:47 -6.5 °C -11.1 °C 34554.1 hPa Calm   7.7 km/h 59 % 0 mm
13:52 -6.4 °C -11.5 °C 34554.1 hPa Calm   7.7 km/h 56 % 0 mm
13:57 -6.4 °C -11.3 °C 34554.1 hPa Calm   10.3 km/h 57 % 0 mm
14:02 -6.4 °C -11.3 °C 34554.1 hPa Calm   10.3 km/h 57 % 0 mm
14:07 -6.6 °C -11.3 °C 34554.1 hPa Calm   12.9 km/h 58 % 0 mm
14:12 -6.6 °C -11 °C 34554.1 hPa Calm   12.9 km/h 60 % 0 mm
14:17 -6.5 °C -11.7 °C 34554.1 hPa Calm   12.9 km/h 55 % 0 mm
14:22 -6.4 °C -10.9 °C 34554.1 hPa Calm   12.9 km/h 60 % 0 mm
14:27 -6.5 °C -11.6 °C 34554.1 hPa Calm   15.6 km/h 56 % 0 mm
14:32 -6.4 °C -11.5 °C 34554.1 hPa Calm   15.6 km/h 56 % 0 mm
14:37 -6.4 °C -11.2 °C 34554.1 hPa Calm   15.6 km/h 58 % 0 mm
14:42 -6.6 °C -11.1 °C 34554.1 hPa SE 2.6 km/h 15.6 km/h 60 % 0 mm
14:47 -6.6 °C -11.2 °C 34544 hPa Calm   15.6 km/h 59 % 0 mm
14:52 -6.8 °C -11.4 °C 34554.1 hPa Calm   15.6 km/h 59 % 0 mm
14:57 -6.8 °C -11 °C 34554.1 hPa Calm   20.8 km/h 62 % 0 mm
15:02 -6.7 °C -11.3 °C 34544 hPa SW 5.1 km/h 20.8 km/h 59 % 0 mm
15:07 -6.6 °C -11.3 °C 34544 hPa ENE 7.7 km/h 18.2 km/h 58 % 0 mm
15:12 -6.5 °C -11.7 °C 34544 hPa Calm   18.2 km/h 55 % 0 mm
15:17 -6.3 °C -11.5 °C 34554.1 hPa Calm   18.2 km/h 55 % 0 mm
15:22 -6.2 °C -11.1 °C 34554.1 hPa Calm   18.2 km/h 57 % 0 mm
15:27 -6.2 °C -11 °C 34554.1 hPa Calm   12.9 km/h 58 % 0 mm
15:32 -6.1 °C -10.4 °C 34554.1 hPa Calm   12.9 km/h 61 % 0 mm
15:37 -6 °C -11.4 °C 34554.1 hPa ENE 10.3 km/h 15.6 km/h 54 % 0 mm
15:42 -6.1 °C -11.5 °C 34554.1 hPa NE 10.3 km/h 15.6 km/h 54 % 0 mm
15:47 -6.3 °C -11.1 °C 34544 hPa NE 5.1 km/h 15.6 km/h 58 % 0 mm
15:57 -6.6 °C -11.3 °C 34544 hPa NE 5.1 km/h 15.6 km/h 58 % 0 mm
16:02 -6.5 °C -11.1 °C 34544 hPa SE 2.6 km/h 15.6 km/h 59 % 0 mm
16:07 -6.6 °C -11.3 °C 34544 hPa Calm   12.9 km/h 58 % 0 mm
16:12 -6.8 °C -11.3 °C 34544 hPa NE 7.7 km/h 12.9 km/h 59 % 0 mm
16:17 -6.8 °C -10.8 °C 34544 hPa Calm   12.9 km/h 63 % 0 mm
16:22 -6.7 °C -10.8 °C 34544 hPa Calm   12.9 km/h 63 % 0 mm
16:32 -6.6 °C -10.4 °C 34544 hPa Calm   12.9 km/h 64 % 0 mm
16:37 -6.3 °C -10.5 °C 34544 hPa WSW 2.6 km/h 7.7 km/h 62 % 0 mm
16:42 -6.2 °C -10.8 °C 34544 hPa Calm   7.7 km/h 59 % 0 mm
16:52 -5.7 °C -11.1 °C 34544 hPa West 7.7 km/h 7.7 km/h 54 % 0 mm
16:57 -5.4 °C -11 °C 34544 hPa Calm   12.9 km/h 53 % 0 mm
17:02 -5.4 °C -10.8 °C 34544 hPa ENE 5.1 km/h 12.9 km/h 54 % 0 mm
17:07 -5.3 °C -10.8 °C 34544 hPa SSE 5.1 km/h 12.9 km/h 54 % 0 mm
17:12 -5.3 °C -10.6 °C 34544 hPa ESE 2.6 km/h 12.9 km/h 55 % 0 mm
17:17 -5.2 °C -11 °C 34544 hPa SSE 5.1 km/h 10.3 km/h 52 % 0 mm
17:22 -5.2 °C -11.4 °C 34544 hPa WSW 2.6 km/h 10.3 km/h 49 % 0 mm
17:27 -5.1 °C -11.2 °C 34544 hPa WNW 2.6 km/h 12.9 km/h 50 % 0 mm
17:32 -5.1 °C -11.1 °C 34544 hPa Calm   12.9 km/h 51 % 0 mm
17:37 -5.1 °C -10.6 °C 34544 hPa Calm   10.3 km/h 54 % 0 mm
17:42 -5.2 °C -11.2 °C 34544 hPa Calm   10.3 km/h 51 % 0 mm
17:47 -5.3 °C -11 °C 34544 hPa Calm   15.6 km/h 52 % 0 mm
17:52 -5.2 °C -10.9 °C 34544 hPa Calm   15.6 km/h 52 % 0 mm
17:57 -5.1 °C -10.9 °C 34544 hPa SW 2.6 km/h 10.3 km/h 52 % 0 mm
18:02 -5.2 °C -11.3 °C 34544 hPa Calm   10.3 km/h 50 % 0 mm
18:07 -5.2 °C -10.8 °C 34544 hPa Calm   10.3 km/h 53 % 0 mm
18:12 -5.4 °C -11.2 °C 34544 hPa Calm   10.3 km/h 52 % 0 mm
18:17 -5.7 °C -11.3 °C 34544 hPa WSW 2.6 km/h 10.3 km/h 53 % 0 mm
18:22 -6 °C -11.1 °C 34544 hPa WSW 2.6 km/h 7.7 km/h 56 % 0 mm
18:27 -6.1 °C -11 °C 34544 hPa ESE 5.1 km/h 7.7 km/h 57 % 0 mm
18:32 -6.2 °C -11.3 °C 34544 hPa Calm   10.3 km/h 56 % 0 mm
18:37 -6.3 °C -11.2 °C 34544 hPa Calm   10.3 km/h 57 % 0 mm
18:42 -6.4 °C -11.2 °C 34544 hPa Calm   10.3 km/h 58 % 0 mm
18:47 -6.6 °C -11 °C 34544 hPa Calm   2.6 km/h 60 % 0 mm
18:52 -6.7 °C -11.3 °C 34544 hPa Calm   2.6 km/h 59 % 0 mm
18:57 -6.7 °C -11.4 °C 34544 hPa Calm   5.1 km/h 58 % 0 mm
19:02 -6.8 °C -11.4 °C 34544 hPa SW 2.6 km/h 5.1 km/h 59 % 0 mm
19:07 -7 °C -11.2 °C 34544 hPa Calm   5.1 km/h 62 % 0 mm
19:12 -7.1 °C -11.1 °C 34544 hPa Calm   5.1 km/h 63 % 0 mm
19:17 -7.2 °C -10.7 °C 34533.8 hPa Calm   5.1 km/h 67 % 0 mm
19:22 -7.3 °C -11.1 °C 34544 hPa Calm   5.1 km/h 65 % 0 mm
19:27 -7.4 °C -11 °C 34544 hPa Calm     66 % 0 mm
19:32 -7.4 °C -11.1 °C 34544 hPa Calm     65 % 0 mm
19:42 -7.4 °C -10.9 °C 34544 hPa Calm   5.1 km/h 67 % 0 mm
19:47 -7.4 °C -10.9 °C 34544 hPa Calm   2.6 km/h 67 % 0 mm
19:52 -7.4 °C -10.8 °C 34544 hPa Calm   2.6 km/h 68 % 0 mm
19:57 -7.6 °C -10.9 °C 34544 hPa Calm   7.7 km/h 68 % 0 mm
20:07 -7.7 °C -11 °C 34554.1 hPa Calm   7.7 km/h 68 % 0 mm
20:12 -7.7 °C -10.9 °C 34554.1 hPa NE 5.1 km/h 7.7 km/h 69 % 0 mm
20:17 -7.7 °C -11.1 °C 34554.1 hPa Calm   7.7 km/h 68 % 0 mm
20:22 -7.7 °C -10.9 °C 34554.1 hPa Calm   7.7 km/h 69 % 0 mm
20:27 -7.8 °C -10.7 °C 34554.1 hPa Calm   7.7 km/h 71 % 0 mm
20:32 -7.8 °C -10.8 °C 34554.1 hPa NE 2.6 km/h 7.7 km/h 71 % 0 mm
20:37 -7.9 °C -11 °C 34554.1 hPa Calm   5.1 km/h 70 % 0 mm
20:42 -8 °C -10.9 °C 34554.1 hPa Calm   5.1 km/h 71 % 0 mm
20:47 -8.1 °C -11.1 °C 34554.1 hPa Calm   5.1 km/h 71 % 0 mm
20:57 -8.3 °C -10.9 °C 34554.1 hPa Calm     74 % 0 mm
21:02 -8.3 °C -10.9 °C 34554.1 hPa Calm     74 % 0 mm
21:07 -8.4 °C -10.9 °C 34554.1 hPa Calm     75 % 0 mm
21:17 -8.6 °C -10.7 °C 34567.7 hPa Calm     78 % 0 mm
21:22 -8.8 °C -10.7 °C 34567.7 hPa Calm     80 % 0 mm
21:32 -9.1 °C -10.7 °C 34567.7 hPa Calm     83 % 0 mm
21:37 -9.2 °C -10.8 °C 34567.7 hPa Calm     83 % 0 mm
21:42 -9.3 °C -10.9 °C 34567.7 hPa Calm     83 % 0 mm
21:47 -9.4 °C -10.8 °C 34567.7 hPa Calm     85 % 0 mm
21:57 -9.7 °C -10.9 °C 34567.7 hPa Calm     87 % 0 mm
22:02 -9.8 °C -10.9 °C 34567.7 hPa Calm     88 % 0 mm
22:07 -9.9 °C -10.9 °C 34567.7 hPa Calm     89 % 0 mm
22:12 -10 °C -11 °C 34567.7 hPa Calm     89 % 0 mm
22:17 -10.1 °C -11.1 °C 34577.8 hPa Calm     89 % 0 mm
22:22 -10.1 °C -11 °C 34577.8 hPa Calm     90 % 0 mm
22:32 -10.1 °C -11 °C 34591.4 hPa Calm     90 % 0 mm
22:37 -10.2 °C -11.1 °C 34591.4 hPa Calm     90 % 0 mm
22:42 -10.3 °C -11.2 °C 34591.4 hPa Calm     90 % 0 mm
22:47 -10.3 °C -11.2 °C 34591.4 hPa Calm     90 % 0 mm
22:52 -10.4 °C -11.3 °C 34591.4 hPa Calm     90 % 0 mm
22:57 -10.5 °C -11.4 °C 34591.4 hPa Calm     90 % 0 mm
23:02 -10.6 °C -11.5 °C 34591.4 hPa Calm     90 % 0 mm
23:12 -10.7 °C -11.4 °C 34601.5 hPa Calm     92 % 0 mm
23:17 -10.7 °C -11.4 °C 34601.5 hPa Calm     92 % 0 mm
23:22 -10.8 °C -11.5 °C 34601.5 hPa Calm     92 % 0 mm
23:27 -10.9 °C -11.6 °C 34601.5 hPa Calm     92 % 0 mm
23:32 -10.9 °C -11.7 °C 34591.4 hPa Calm     92 % 0 mm
23:37 -11 °C -11.6 °C 34591.4 hPa Calm     93 % 0 mm
23:42 -11 °C -11.6 °C 34591.4 hPa Calm     93 % 0 mm
23:47 -11.1 °C -11.7 °C 34601.5 hPa Calm     93 % 0 mm
23:52 -11.1 °C -11.7 °C 34591.4 hPa Calm     93 % 0 mm
23:57 -11.2 °C -11.8 °C 34591.4 hPa Calm     93 % 0 mm
Meteo18
Compliments of Weather Underground - 4 mb

Script developed by  Jim McMurry - jmcmurry@mwt.net Adapted for the template by  Wim van der Kuil - Leuven-Template.eu

You find our weather info also at:

European Weather Network

Weather Underground

Equipment we use:

Weather-station
Davis Vue

Weather-program
Meteobridge

Weather-server
Raspberry PI 2 B+

Provider
1 and 1

Davis Vue

Meteobridge

Raspberry PI 2 B+

1 and 1